Time;durP1;ratioP1;P1;durP2;ratioP2;P2;SDS_P1;SDS_P2;PMS_P1;PMS_P2;Temp;Humidity;BMP_temperature;BMP_pressure;BME280_temperature;BME280_humidity;BME280_pressure;Samples;Min_cycle;Max_cycle;Signal;HPM_P1;HPM_P2
2021/07/29 00:01:42;;;;;;;1999.90;999.90;;;;;;;23.31;71.03;95726.22;5045926;28;20201;-67
2021/07/29 00:04:09;;;;;;;1999.90;999.90;;;;;;;23.19;72.49;95729.16;5045863;28;20197;-67
2021/07/29 00:06:36;;;;;;;1999.90;999.90;;;;;;;23.01;75.82;95718.41;5045677;28;20197;-67
2021/07/29 00:09:05;;;;;;;1999.90;999.90;;;;;;;22.83;78.16;95714.09;5045876;28;20205;-68
2021/07/29 00:11:32;;;;;;;1999.90;999.90;;;;;;;22.55;80.42;95706.63;5045703;28;20312;-68
2021/07/29 00:14:01;;;;;;;1999.90;999.90;;;;;;;22.32;81.64;95718.13;5045538;28;20283;-67
2021/07/29 00:16:30;;;;;;;1999.90;999.90;;;;;;;22.11;83.26;95725.84;5045673;28;20205;-68
2021/07/29 00:19:05;;;;;;;1999.90;999.90;;;;;;;22.17;84.10;95720.97;5045444;28;20197;-67
2021/07/29 00:21:33;;;;;;;1999.90;999.90;;;;;;;22.03;85.44;95715.53;5045474;28;20228;-68
2021/07/29 00:24:00;;;;;;;1999.90;999.90;;;;;;;22.05;85.33;95714.06;5045501;28;20208;-68
2021/07/29 00:26:29;;;;;;;1999.90;999.90;;;;;;;22.01;86.09;95697.38;5045512;28;20205;-69
2021/07/29 00:28:57;;;;;;;1999.90;999.90;;;;;;;21.83;87.58;95706.94;5045262;28;20198;-68
2021/07/29 00:31:30;;;;;;;1999.90;999.90;;;;;;;21.80;87.60;95705.03;5045766;28;20225;-68
2021/07/29 00:33:57;;;;;;;1999.90;999.90;;;;;;;21.90;87.75;95704.41;5045573;28;20186;-68
2021/07/29 00:36:25;;;;;;;1999.90;999.90;;;;;;;21.85;87.79;95712.66;5045309;28;20194;-68
2021/07/29 00:38:52;;;;;;;1999.90;999.90;;;;;;;21.81;88.06;95709.22;5045126;28;20752;-68
2021/07/29 00:41:19;;;;;;;1999.90;999.90;;;;;;;21.84;85.82;95703.94;5045578;28;20231;-67
2021/07/29 00:43:48;;;;;;;1999.90;999.90;;;;;;;21.97;84.70;95709.78;5045053;28;20201;-68
2021/07/29 00:46:15;;;;;;;1999.90;999.90;;;;;;;22.07;79.31;95721.63;5045528;28;20197;-68
2021/07/29 00:48:44;;;;;;;1999.90;999.90;;;;;;;22.01;79.14;95725.72;5045139;28;20206;-69
2021/07/29 00:51:11;;;;;;;1999.90;999.90;;;;;;;21.93;78.44;95719.56;5045318;28;20228;-69
2021/07/29 00:53:38;;;;;;;1999.90;999.90;;;;;;;21.89;77.97;95714.22;5044929;28;20288;-70
2021/07/29 00:56:06;;;;;;;1999.90;999.90;;;;;;;21.92;76.51;95709.34;5045182;28;20197;-71
2021/07/29 00:58:33;;;;;;;1999.90;999.90;;;;;;;22.02;75.55;95712.13;5045254;28;20209;-70
2021/07/29 01:01:02;;;;;;;1999.90;999.90;;;;;;;22.00;75.15;95709.09;5047449;28;20621;-69
2021/07/29 01:03:29;;;;;;;1999.90;999.90;;;;;;;21.97;75.25;95699.19;5048337;28;20201;-69
2021/07/29 01:05:57;;;;;;;1999.90;999.90;;;;;;;22.15;74.35;95700.19;5048408;28;20734;-69
2021/07/29 01:08:24;;;;;;;1999.90;999.90;;;;;;;22.20;74.04;95691.16;5048371;28;20197;-68
2021/07/29 01:10:51;;;;;;;1999.90;999.90;;;;;;;22.17;74.57;95692.63;5048137;28;20716;-68
2021/07/29 01:13:18;;;;;;;1999.90;999.90;;;;;;;22.07;76.49;95684.56;5048667;28;20197;-68
2021/07/29 01:15:45;;;;;;;1999.90;999.90;;;;;;;22.00;77.39;95682.63;5048453;28;20619;-68
2021/07/29 01:18:14;;;;;;;1999.90;999.90;;;;;;;21.91;78.17;95674.19;5048140;28;20201;-68
2021/07/29 01:20:43;;;;;;;1999.90;999.90;;;;;;;22.04;77.01;95672.06;5047924;28;20212;-68
2021/07/29 01:23:10;;;;;;;1999.90;999.90;;;;;;;22.10;76.01;95665.31;5048302;28;20189;-69
2021/07/29 01:25:37;;;;;;;1999.90;999.90;;;;;;;22.08;77.02;95663.03;5048031;28;20205;-69
2021/07/29 01:28:04;;;;;;;1999.90;999.90;;;;;;;22.14;76.63;95661.59;5048130;28;20270;-69
2021/07/29 01:30:31;;;;;;;1999.90;999.90;;;;;;;22.22;76.60;95663.16;5047999;28;20689;-68
2021/07/29 01:33:03;;;;;;;1999.90;999.90;;;;;;;22.22;75.59;95655.22;5047938;28;20228;-69
2021/07/29 01:35:30;;;;;;;1999.90;999.90;;;;;;;22.21;75.25;95656.38;5048162;28;20627;-68
2021/07/29 01:37:59;;;;;;;1999.90;999.90;;;;;;;22.29;74.02;95663.25;5048267;28;20205;-68
2021/07/29 01:40:26;;;;;;;1999.90;999.90;;;;;;;22.40;72.90;95678.47;5047805;28;20193;-68
2021/07/29 01:42:53;;;;;;;1999.90;999.90;;;;;;;22.49;71.31;95678.94;5048358;28;20234;-68
2021/07/29 01:45:20;;;;;;;1999.90;999.90;;;;;;;22.47;71.89;95683.84;5048188;28;20208;-69
2021/07/29 01:47:47;;;;;;;1999.90;999.90;;;;;;;22.46;72.40;95669.84;5048079;28;20208;-68
2021/07/29 01:50:14;;;;;;;1999.90;999.90;;;;;;;22.16;80.28;95669.19;5047678;28;20730;-68
2021/07/29 01:52:41;;;;;;;1999.90;999.90;;;;;;;22.00;83.01;95668.63;5048640;28;20220;-69
2021/07/29 01:55:10;;;;;;;1999.90;999.90;;;;;;;21.97;83.98;95656.13;5067738;27;20200;-70
2021/07/29 01:57:38;;;;;;;1999.90;999.90;;;;;;;21.97;84.96;95653.47;5067756;28;20252;-69
2021/07/29 02:00:06;;;;;;;1999.90;999.90;;;;;;;21.92;85.16;95654.50;5067835;28;20197;-67
2021/07/29 02:02:33;;;;;;;1999.90;999.90;;;;;;;21.89;85.48;95649.94;5046660;27;20217;-66
2021/07/29 02:05:01;;;;;;;1999.90;999.90;;;;;;;21.73;86.11;95657.31;5034411;27;20202;-68
2021/07/29 02:07:28;;;;;;;1999.90;999.90;;;;;;;21.61;86.54;95650.38;5033910;28;20214;-68
2021/07/29 02:09:55;;;;;;;1999.90;999.90;;;;;;;21.44;87.67;95651.69;5026754;28;20288;-67
2021/07/29 02:12:23;;;;;;;1999.90;999.90;;;;;;;21.47;87.71;95650.19;5039049;27;20220;-68
2021/07/29 02:14:50;;;;;;;1999.90;999.90;;;;;;;21.57;86.97;95646.19;5049567;28;20222;-74
2021/07/29 02:17:20;;;;;;;1999.90;999.90;;;;;;;21.60;87.27;95656.03;5061402;27;20333;-70
2021/07/29 02:19:47;;;;;;;1999.90;999.90;;;;;;;21.53;88.37;95658.56;5047048;27;20829;-70
2021/07/29 02:22:15;;;;;;;1999.90;999.90;;;;;;;21.60;88.26;95659.44;5046963;27;20225;-69
2021/07/29 02:24:42;;;;;;;1999.90;999.90;;;;;;;21.69;87.75;95677.69;5046922;28;20253;-69
2021/07/29 02:27:10;;;;;;;1999.90;999.90;;;;;;;21.64;89.59;95676.13;5047210;28;20619;-70
2021/07/29 02:29:39;;;;;;;1999.90;999.90;;;;;;;21.60;90.48;95675.31;5047145;27;20201;-68
2021/07/29 02:32:06;;;;;;;1999.90;999.90;;;;;;;21.54;89.69;95675.97;5047186;28;20550;-69
2021/07/29 02:34:34;;;;;;;1999.90;999.90;;;;;;;21.56;86.87;95674.50;5040782;28;20230;-71
2021/07/29 02:37:01;;;;;;;1999.90;999.90;;;;;;;21.52;87.76;95675.59;5037832;28;20205;-70
2021/07/29 02:39:28;;;;;;;1999.90;999.90;;;;;;;21.53;87.72;95664.63;5034995;28;20219;-68
2021/07/29 02:41:55;;;;;;;1999.90;999.90;;;;;;;21.43;88.51;95675.84;5031420;28;20680;-69
2021/07/29 02:44:22;;;;;;;1999.90;999.90;;;;;;;21.43;88.51;95676.59;5047276;27;20224;-71
2021/07/29 02:46:50;;;;;;;1999.90;999.90;;;;;;;21.42;88.64;95677.72;5046523;28;20201;-68
2021/07/29 02:49:18;;;;;;;1999.90;999.90;;;;;;;21.44;88.25;95674.72;5046972;28;20201;-68
2021/07/29 02:51:45;;;;;;;1999.90;999.90;;;;;;;21.47;87.79;95677.41;5046828;28;20705;-75
2021/07/29 02:54:12;;;;;;;1999.90;999.90;;;;;;;21.56;87.34;95681.69;5046656;28;20197;-67
2021/07/29 02:56:39;;;;;;;1999.90;999.90;;;;;;;21.61;86.30;95686.66;5046482;28;20197;-67
2021/07/29 02:59:06;;;;;;;1999.90;999.90;;;;;;;21.54;86.13;95682.03;5046595;28;20198;-68
2021/07/29 03:01:33;;;;;;;1999.90;999.90;;;;;;;21.54;83.90;95681.25;5046194;28;20200;-69
2021/07/29 03:04:01;;;;;;;1999.90;999.90;;;;;;;21.53;82.64;95682.38;5046435;28;20257;-67
2021/07/29 03:06:29;;;;;;;1999.90;999.90;;;;;;;21.55;83.11;95685.44;5033130;28;20317;-69
2021/07/29 03:08:56;;;;;;;1999.90;999.90;;;;;;;21.62;82.16;95683.63;5038868;28;20664;-68
2021/07/29 03:11:23;;;;;;;1999.90;999.90;;;;;;;21.50;81.70;95685.75;5046361;28;20584;-69
2021/07/29 03:13:50;;;;;;;1999.90;999.90;;;;;;;21.51;82.09;95682.00;5032072;28;20700;-68
2021/07/29 03:16:17;;;;;;;1999.90;999.90;;;;;;;21.45;82.50;95684.19;5037001;28;20216;-67
2021/07/29 03:18:44;;;;;;;1999.90;999.90;;;;;;;21.40;82.26;95687.91;5046113;28;20201;-67
2021/07/29 03:21:13;;;;;;;1999.90;999.90;;;;;;;21.47;82.01;95687.97;5046232;28;20236;-67
2021/07/29 03:23:41;;;;;;;1999.90;999.90;;;;;;;21.48;81.09;95684.22;5046081;28;20701;-68
2021/07/29 03:26:08;;;;;;;1999.90;999.90;;;;;;;21.52;80.40;95694.09;5046058;28;20585;-67
2021/07/29 03:28:35;;;;;;;1999.90;999.90;;;;;;;21.53;79.23;95682.38;5046361;28;20240;-67
2021/07/29 03:31:02;;;;;;;1999.90;999.90;;;;;;;21.52;78.75;95688.81;5045901;28;20204;-67
2021/07/29 03:33:29;;;;;;;1999.90;999.90;;;;;;;21.52;78.30;95686.91;5046153;28;20223;-67
2021/07/29 03:35:56;;;;;;;1999.90;999.90;;;;;;;21.52;78.13;95683.53;5036369;28;20210;-65
2021/07/29 03:38:25;;;;;;;1999.90;999.90;;;;;;;21.56;77.47;95690.38;5037291;28;20205;-65
2021/07/29 03:40:52;;;;;;;1999.90;999.90;;;;;;;21.62;77.73;95690.84;5042520;28;20719;-68
2021/07/29 03:43:19;;;;;;;1999.90;999.90;;;;;;;21.64;77.70;95689.34;5044825;27;20724;-67
2021/07/29 03:45:46;;;;;;;1999.90;999.90;;;;;;;21.63;77.99;95692.34;5046315;28;20201;-66
2021/07/29 03:48:13;;;;;;;1999.90;999.90;;;;;;;21.64;77.34;95688.56;5052826;27;20201;-67
2021/07/29 03:50:41;;;;;;;1999.90;999.90;;;;;;;21.62;76.05;95688.19;5047948;27;20208;-65
2021/07/29 03:53:09;;;;;;;1999.90;999.90;;;;;;;21.69;74.19;95694.31;5037635;27;20280;-65
2021/07/29 03:55:38;;;;;;;1999.90;999.90;;;;;;;21.69;74.94;95696.19;5040059;27;20208;-64
2021/07/29 03:58:05;;;;;;;1999.90;999.90;;;;;;;21.87;73.96;95694.53;5043041;27;20213;-68
2021/07/29 04:00:32;;;;;;;1999.90;999.90;;;;;;;21.90;72.95;95693.81;5034802;28;20216;-67
2021/07/29 04:03:00;;;;;;;1999.90;999.90;;;;;;;21.88;73.16;95690.75;5023127;28;20219;-68
2021/07/29 04:05:27;;;;;;;1999.90;999.90;;;;;;;21.89;72.89;95692.28;5021243;28;20201;-68
2021/07/29 04:07:54;;;;;;;1999.90;999.90;;;;;;;21.82;73.58;95692.94;5023117;28;20201;-68
2021/07/29 04:10:21;;;;;;;1999.90;999.90;;;;;;;21.91;75.55;95692.69;5023246;28;20198;-68
2021/07/29 04:12:50;;;;;;;1999.90;999.90;;;;;;;21.80;79.79;95695.22;5040137;28;20220;-68
2021/07/29 04:15:17;;;;;;;1999.90;999.90;;;;;;;21.62;83.46;95696.13;5043586;28;20672;-67
2021/07/29 04:17:44;;;;;;;1999.90;999.90;;;;;;;21.62;84.12;95694.22;5044574;28;20665;-68
2021/07/29 04:20:11;;;;;;;1999.90;999.90;;;;;;;21.54;83.84;95687.31;5045805;28;20197;-67
2021/07/29 04:22:38;;;;;;;1999.90;999.90;;;;;;;21.48;83.96;95694.81;5045505;28;20228;-68
2021/07/29 04:25:06;;;;;;;1999.90;999.90;;;;;;;21.50;85.09;95701.63;5046016;28;20204;-67
2021/07/29 04:27:33;;;;;;;1999.90;999.90;;;;;;;21.51;85.85;95692.56;5045838;28;20232;-67
2021/07/29 04:30:01;;;;;;;1999.90;999.90;;;;;;;21.65;86.46;95692.75;5045428;28;20197;-67
2021/07/29 04:32:34;;;;;;;1999.90;999.90;;;;;;;21.72;86.81;95687.53;5045411;28;20232;-67
2021/07/29 04:35:01;;;;;;;1999.90;999.90;;;;;;;21.69;87.66;95689.03;5046132;28;20200;-66
2021/07/29 04:37:29;;;;;;;1999.90;999.90;;;;;;;21.98;87.12;95679.56;5049244;28;20201;-67
2021/07/29 04:39:56;;;;;;;1999.90;999.90;;;;;;;22.21;86.13;95682.84;5049020;28;20209;-67
2021/07/29 04:42:23;;;;;;;1999.90;999.90;;;;;;;22.56;84.29;95686.97;5048978;28;20194;-67
2021/07/29 04:44:50;;;;;;;1999.90;999.90;;;;;;;22.84;83.21;95689.88;5048952;28;20200;-67
2021/07/29 04:47:18;;;;;;;1999.90;999.90;;;;;;;22.91;83.00;95695.25;5049028;28;20193;-67
2021/07/29 04:49:45;;;;;;;1999.90;999.90;;;;;;;22.84;83.70;95695.19;5048629;28;20204;-66
2021/07/29 04:52:13;;;;;;;1999.90;999.90;;;;;;;23.14;82.73;95700.31;5048949;28;20300;-66
2021/07/29 04:54:40;;;;;;;1999.90;999.90;;;;;;;23.18;82.68;95693.91;5048904;28;20194;-66
2021/07/29 04:57:07;;;;;;;1999.90;999.90;;;;;;;23.18;83.10;95691.25;5048481;28;20681;-66
2021/07/29 04:59:36;;;;;;;1999.90;999.90;;;;;;;23.37;82.12;95692.88;5048479;28;20201;-66
2021/07/29 05:02:03;;;;;;;1999.90;999.90;;;;;;;23.67;79.92;95698.00;5048471;28;20204;-67
2021/07/29 05:04:32;;;;;;;1999.90;999.90;;;;;;;23.75;79.89;95702.22;5048721;28;20201;-67
2021/07/29 05:06:59;;;;;;;1999.90;999.90;;;;;;;23.99;78.26;95703.47;5048350;28;20201;-67
2021/07/29 05:09:26;;;;;;;1999.90;999.90;;;;;;;24.00;76.68;95708.41;5048667;28;20700;-67
2021/07/29 05:11:53;;;;;;;1999.90;999.90;;;;;;;24.00;77.98;95712.97;5048062;28;20202;-67
2021/07/29 05:14:20;;;;;;;1999.90;999.90;;;;;;;24.03;77.93;95705.00;5048390;28;20198;-67
2021/07/29 05:16:47;;;;;;;1999.90;999.90;;;;;;;24.07;77.54;95706.88;5048492;28;20197;-67
2021/07/29 05:19:15;;;;;;;1999.90;999.90;;;;;;;24.17;76.69;95711.50;5048372;28;20689;-67
2021/07/29 05:21:43;;;;;;;1999.90;999.90;;;;;;;24.07;75.24;95706.88;5048001;28;20236;-67
2021/07/29 05:24:10;;;;;;;1999.90;999.90;;;;;;;24.06;75.04;95710.72;5048040;28;20203;-68
2021/07/29 05:26:37;;;;;;;1999.90;999.90;;;;;;;24.25;74.52;95710.41;5048055;28;20258;-67
2021/07/29 05:29:04;;;;;;;1999.90;999.90;;;;;;;24.43;74.47;95713.84;5048069;28;20754;-68
2021/07/29 05:31:31;;;;;;;1999.90;999.90;;;;;;;24.61;73.82;95724.53;5048270;28;20738;-67
2021/07/29 05:33:59;;;;;;;1999.90;999.90;;;;;;;24.64;73.80;95716.56;5047956;27;20708;-67
2021/07/29 05:36:26;;;;;;;1999.90;999.90;;;;;;;24.88;72.14;95719.63;5048133;28;20208;-68
2021/07/29 05:38:55;;;;;;;1999.90;999.90;;;;;;;25.06;71.91;95723.06;5048104;28;20201;-67
2021/07/29 05:41:22;;;;;;;1999.90;999.90;;;;;;;25.13;71.83;95725.72;5047842;28;20201;-67
2021/07/29 05:43:49;;;;;;;1999.90;999.90;;;;;;;25.14;70.09;95724.59;5048033;28;20197;-66
2021/07/29 05:46:16;;;;;;;1999.90;999.90;;;;;;;25.23;71.67;95727.63;5046994;28;20404;-66
2021/07/29 05:48:43;;;;;;;1999.90;999.90;;;;;;;25.39;70.75;95721.91;5047390;28;20640;-68
2021/07/29 05:51:10;;;;;;;1999.90;999.90;;;;;;;25.57;69.74;95731.38;5050246;28;20676;-68
2021/07/29 05:53:37;;;;;;;1999.90;999.90;;;;;;;25.86;68.69;95731.31;5047649;28;20235;-68
2021/07/29 05:56:06;;;;;;;1999.90;999.90;;;;;;;25.78;68.14;95727.91;5047777;28;20197;-68
2021/07/29 05:58:33;;;;;;;1999.90;999.90;;;;;;;26.03;66.38;95730.50;5047793;28;20752;-67
2021/07/29 06:01:07;;;;;;;1999.90;999.90;;;;;;;26.27;65.93;95740.31;5047679;28;20205;-67
2021/07/29 06:03:35;;;;;;;1999.90;999.90;;;;;;;26.33;65.70;95738.75;5047608;28;20197;-67
2021/07/29 06:06:02;;;;;;;1999.90;999.90;;;;;;;26.22;67.04;95735.38;5047665;28;20728;-67
2021/07/29 06:08:29;;;;;;;1999.90;999.90;;;;;;;26.50;65.39;95751.22;5047834;28;20227;-67
2021/07/29 06:10:56;;;;;;;1999.90;999.90;;;;;;;26.58;64.40;95743.19;5047263;28;20573;-68
2021/07/29 06:13:24;;;;;;;1999.90;999.90;;;;;;;26.55;65.04;95755.41;5047222;28;20600;-68
2021/07/29 06:15:52;;;;;;;1999.90;999.90;;;;;;;26.61;64.52;95753.06;5047238;28;20197;-68
2021/07/29 06:18:19;;;;;;;1999.90;999.90;;;;;;;27.01;66.43;95741.78;5047380;28;20200;-68
2021/07/29 06:20:46;;;;;;;1999.90;999.90;;;;;;;26.94;62.91;95747.19;5046951;28;20212;-67
2021/07/29 06:23:13;;;;;;;1999.90;999.90;;;;;;;27.27;61.33;95735.84;5047607;28;20587;-67
2021/07/29 06:25:41;;;;;;;1999.90;999.90;;;;;;;27.65;58.23;95750.00;5047223;28;20209;-67
2021/07/29 06:28:12;;;;;;;1999.90;999.90;;;;;;;27.60;56.28;95739.00;5047286;28;20317;-67
2021/07/29 06:30:43;;;;;;;1999.90;999.90;;;;;;;27.97;51.97;95735.56;5047157;28;20684;-68
2021/07/29 06:33:10;;;;;;;1999.90;999.90;;;;;;;27.87;52.14;95734.53;5046981;28;20220;-67
2021/07/29 06:35:37;;;;;;;1999.90;999.90;;;;;;;28.09;51.94;95735.81;5047304;28;20239;-67
2021/07/29 06:38:04;;;;;;;1999.90;999.90;;;;;;;28.21;51.40;95735.28;5046920;28;20646;-68
2021/07/29 06:40:32;;;;;;;1999.90;999.90;;;;;;;28.08;49.31;95734.28;5047250;28;20205;-67
2021/07/29 06:42:59;;;;;;;1999.90;999.90;;;;;;;28.36;48.17;95732.41;5047274;28;20189;-66
2021/07/29 06:45:26;;;;;;;1999.90;999.90;;;;;;;28.67;48.60;95728.56;5046831;28;20197;-67
2021/07/29 06:47:54;;;;;;;1999.90;999.90;;;;;;;28.37;49.35;95709.88;5047155;28;20215;-67
2021/07/29 06:50:21;;;;;;;1999.90;999.90;;;;;;;28.57;53.23;95711.50;5046834;27;20673;-67
2021/07/29 06:52:48;;;;;;;1999.90;999.90;;;;;;;28.67;52.76;95707.16;5038364;28;20226;-67
2021/07/29 06:55:16;;;;;;;1999.90;999.90;;;;;;;28.98;52.37;95702.50;5043505;28;20742;-67
2021/07/29 06:57:43;;;;;;;1999.90;999.90;;;;;;;28.57;52.77;95713.41;5046720;28;20210;-68
2021/07/29 07:00:11;;;;;;;1999.90;999.90;;;;;;;28.44;53.27;95712.47;5046780;28;20208;-68
2021/07/29 07:02:38;;;;;;;1999.90;999.90;;;;;;;28.69;54.36;95720.91;5046904;28;20588;-68
2021/07/29 07:05:08;;;;;;;1999.90;999.90;;;;;;;28.77;54.55;95719.66;5046618;28;20208;-68
2021/07/29 07:07:35;;;;;;;1999.90;999.90;;;;;;;28.78;52.63;95723.84;5047084;28;20375;-67
2021/07/29 07:10:02;;;;;;;1999.90;999.90;;;;;;;29.10;50.20;95721.41;5046918;28;20205;-68
2021/07/29 07:12:29;;;;;;;1999.90;999.90;;;;;;;28.83;49.79;95717.28;5046416;28;20194;-68
2021/07/29 07:14:56;;;;;;;1999.90;999.90;;;;;;;28.86;49.79;95714.53;5046716;28;20261;-68
2021/07/29 07:17:23;;;;;;;1999.90;999.90;;;;;;;29.15;49.15;95711.38;5046638;28;20197;-68
2021/07/29 07:19:52;;;;;;;1999.90;999.90;;;;;;;29.47;47.38;95717.00;5046696;28;20284;-67
2021/07/29 07:22:20;;;;;;;1999.90;999.90;;;;;;;29.66;46.63;95721.63;5046220;28;20240;-67
2021/07/29 07:24:47;;;;;;;1999.90;999.90;;;;;;;29.92;44.92;95715.41;5046311;28;20194;-69
2021/07/29 07:27:14;;;;;;;1999.90;999.90;;;;;;;29.85;46.60;95717.44;5046574;28;20201;-68
2021/07/29 07:29:42;;;;;;;1999.90;999.90;;;;;;;29.58;48.34;95706.84;5046650;28;20202;-67
2021/07/29 07:32:09;;;;;;;1999.90;999.90;;;;;;;29.71;47.81;95712.34;5046301;28;20201;-67
2021/07/29 07:34:36;;;;;;;1999.90;999.90;;;;;;;29.84;44.19;95707.88;5046190;28;20658;-67
2021/07/29 07:37:03;;;;;;;1999.90;999.90;;;;;;;30.35;40.73;95711.84;5046316;28;20202;-67
2021/07/29 07:39:35;;;;;;;1999.90;999.90;;;;;;;30.64;40.54;95710.06;5046436;28;20193;-67
2021/07/29 07:42:02;;;;;;;1999.90;999.90;;;;;;;30.59;40.21;95715.94;5046628;28;20196;-67
2021/07/29 07:44:30;;;;;;;1999.90;999.90;;;;;;;30.96;39.05;95703.19;5046375;28;20650;-68
2021/07/29 07:46:57;;;;;;;1999.90;999.90;;;;;;;31.07;38.87;95703.72;5046277;28;20197;-68
2021/07/29 07:49:24;;;;;;;1999.90;999.90;;;;;;;31.05;43.70;95695.34;5046106;28;20209;-67
2021/07/29 07:51:51;;;;;;;1999.90;999.90;;;;;;;31.22;43.04;95694.16;5046229;28;20250;-67
2021/07/29 07:54:18;;;;;;;1999.90;999.90;;;;;;;31.28;42.18;95695.16;5047653;28;20225;-67
2021/07/29 07:56:46;;;;;;;1999.90;999.90;;;;;;;31.30;42.63;95689.34;5065760;27;20725;-67
2021/07/29 07:59:14;;;;;;;1999.90;999.90;;;;;;;31.01;42.37;95698.09;5065919;28;20212;-67
2021/07/29 08:01:43;;;;;;;1999.90;999.90;;;;;;;30.98;43.14;95695.50;5065649;28;20287;-68
2021/07/29 08:04:10;;;;;;;1999.90;999.90;;;;;;;31.32;44.13;95690.44;5066181;27;20667;-67
2021/07/29 08:06:38;;;;;;;1999.90;999.90;;;;;;;31.59;41.53;95690.13;5066171;27;20211;-68
2021/07/29 08:09:05;;;;;;;1999.90;999.90;;;;;;;31.98;39.97;95689.06;5065681;28;20600;-68
2021/07/29 08:11:33;;;;;;;1999.90;999.90;;;;;;;32.16;35.62;95688.59;5060892;28;20189;-66
2021/07/29 08:14:01;;;;;;;1999.90;999.90;;;;;;;32.17;37.52;95688.16;5049499;28;20232;-68
2021/07/29 08:16:28;;;;;;;1999.90;999.90;;;;;;;31.82;38.44;95687.22;5049264;28;20201;-69
2021/07/29 08:18:57;;;;;;;1999.90;999.90;;;;;;;32.05;35.95;95688.84;5049380;28;20197;-68
2021/07/29 08:21:24;;;;;;;1999.90;999.90;;;;;;;32.12;39.15;95688.69;5048876;28;20229;-69
2021/07/29 08:23:51;;;;;;;1999.90;999.90;;;;;;;32.33;37.98;95682.66;5049477;28;20193;-69
2021/07/29 08:26:18;;;;;;;1999.90;999.90;;;;;;;32.56;37.10;95688.91;5049290;28;20197;-69
2021/07/29 08:28:45;;;;;;;1999.90;999.90;;;;;;;32.87;34.07;95692.59;5049238;28;20215;-69
2021/07/29 08:31:14;;;;;;;1999.90;999.90;;;;;;;32.94;35.05;95692.34;5049265;28;20198;-68
2021/07/29 08:33:42;;;;;;;1999.90;999.90;;;;;;;32.98;37.52;95698.38;5049223;28;20232;-68
2021/07/29 08:36:14;;;;;;;1999.90;999.90;;;;;;;33.17;37.11;95686.63;5049175;28;20238;-69
2021/07/29 08:38:41;;;;;;;1999.90;999.90;;;;;;;32.76;35.13;95681.41;5049199;28;20197;-67
2021/07/29 08:41:09;;;;;;;1999.90;999.90;;;;;;;32.64;34.84;95668.69;5048847;28;20677;-67
2021/07/29 08:43:36;;;;;;;1999.90;999.90;;;;;;;32.52;38.94;95677.50;5049064;28;20681;-67
2021/07/29 08:46:07;;;;;;;1999.90;999.90;;;;;;;32.94;37.01;95676.19;5049057;28;20583;-67
2021/07/29 08:48:36;;;;;;;1999.90;999.90;;;;;;;33.06;37.38;95672.72;5049020;28;20274;-68
2021/07/29 08:51:04;;;;;;;1999.90;999.90;;;;;;;32.89;37.52;95674.03;5049031;28;20254;-68
2021/07/29 08:53:32;;;;;;;1999.90;999.90;;;;;;;32.79;37.92;95669.75;5048858;28;20224;-68
2021/07/29 08:55:59;;;;;;;1999.90;999.90;;;;;;;33.18;36.39;95671.19;5048659;28;20202;-70
2021/07/29 08:58:26;;;;;;;1999.90;999.90;;;;;;;33.43;34.13;95668.41;5048887;28;20605;-70
2021/07/29 09:01:01;;;;;;;1999.90;999.90;;;;;;;33.51;35.60;95663.53;5048432;28;20211;-70
2021/07/29 09:03:29;;;;;;;1999.90;999.90;;;;;;;33.75;36.40;95661.94;5048700;28;20284;-69
2021/07/29 09:06:08;;;;;;;1999.90;999.90;;;;;;;34.13;36.17;95656.28;5048308;27;20208;-70
2021/07/29 09:08:49;;;;;;;1999.90;999.90;;;;;;;34.09;36.42;95656.41;5048925;28;20196;-68
2021/07/29 09:11:26;;;;;;;1999.90;999.90;;;;;;;34.19;34.59;95657.25;5043443;28;20720;-69
2021/07/29 09:14:07;;;;;;;1999.90;999.90;;;;;;;34.30;32.91;95656.84;5028897;28;20294;-69
2021/07/29 09:16:37;;;;;;;1999.90;999.90;;;;;;;34.42;33.62;95654.03;5028593;28;20183;-69
2021/07/29 09:19:05;;;;;;;1999.90;999.90;;;;;;;34.64;34.75;95648.56;5028485;28;20190;-69
2021/07/29 09:21:34;;;;;;;1999.90;999.90;;;;;;;34.30;34.90;95641.41;5028066;28;20244;-69
2021/07/29 09:24:09;;;;;;;1999.90;999.90;;;;;;;34.34;34.76;95643.94;5028285;28;20232;-69
2021/07/29 09:26:57;;;;;;;1999.90;999.90;;;;;;;34.62;34.01;95642.84;5028668;28;20250;-69
2021/07/29 09:29:26;;;;;;;1999.90;999.90;;;;;;;34.86;35.07;95645.78;5028280;28;20242;-69
2021/07/29 09:32:05;;;;;;;1999.90;999.90;;;;;;;35.04;34.27;95645.78;5028248;28;20201;-69
2021/07/29 09:34:46;;;;;;;1999.90;999.90;;;;;;;34.92;32.14;95639.31;5028459;28;20693;-69
2021/07/29 09:37:16;;;;;;;1999.90;999.90;;;;;;;34.89;33.43;95642.94;5028122;28;20206;-69
2021/07/29 09:39:43;;;;;;;1999.90;999.90;;;;;;;34.93;33.08;95638.13;5028424;28;20220;-69
2021/07/29 09:42:22;;;;;;;1999.90;999.90;;;;;;;34.73;33.26;95635.09;5028512;28;20205;-69
2021/07/29 09:44:50;;;;;;;1999.90;999.90;;;;;;;34.82;34.08;95635.09;5028038;28;20198;-69
2021/07/29 09:47:18;;;;;;;1999.90;999.90;;;;;;;34.64;32.88;95635.03;5028061;28;20974;-70
2021/07/29 09:49:47;;;;;;;1999.90;999.90;;;;;;;34.50;36.12;95630.97;5028191;28;20285;-70
2021/07/29 09:52:16;;;;;;;1999.90;999.90;;;;;;;34.74;35.29;95625.03;5027932;28;20262;-69
2021/07/29 09:54:44;;;;;;;1999.90;999.90;;;;;;;35.02;33.37;95626.56;5027757;28;20222;-69
2021/07/29 09:57:12;;;;;;;1999.90;999.90;;;;;;;35.13;31.98;95629.56;5027781;28;20289;-69
2021/07/29 09:59:40;;;;;;;1999.90;999.90;;;;;;;35.02;33.97;95623.13;5028080;28;20198;-69
2021/07/29 10:02:08;;;;;;;1999.90;999.90;;;;;;;35.10;35.61;95619.69;5044623;28;20205;-68
2021/07/29 10:04:43;;;;;;;1999.90;999.90;;;;;;;35.22;31.95;95618.78;5048375;28;20201;-69
2021/07/29 10:07:19;;;;;;;1999.90;999.90;;;;;;;35.51;31.94;95615.63;5048081;28;20571;-69
2021/07/29 10:09:48;;;;;;;1999.90;999.90;;;;;;;35.50;33.16;95614.13;5048003;28;20241;-69
2021/07/29 10:12:21;;;;;;;1999.90;999.90;;;;;;;35.60;34.16;95618.31;5047381;28;20201;-69
2021/07/29 10:14:51;;;;;;;1999.90;999.90;;;;;;;35.77;35.52;95621.44;5047352;28;20213;-70
2021/07/29 10:17:18;;;;;;;1999.90;999.90;;;;;;;35.86;31.86;95607.16;5047605;28;20209;-69
2021/07/29 10:20:15;;;;;;;1999.90;999.90;;;;;;;36.21;32.23;95605.56;5047810;28;20189;-69
2021/07/29 10:22:45;;;;;;;1999.90;999.90;;;;;;;36.36;33.64;95605.63;5047148;28;20229;-69
2021/07/29 10:25:12;;;;;;;1999.90;999.90;;;;;;;36.22;30.22;95605.09;5047646;28;20193;-69
2021/07/29 10:27:40;;;;;;;1999.90;999.90;;;;;;;36.18;32.01;95601.03;5047141;28;20665;-70
2021/07/29 10:30:36;;;;;;;1999.90;999.90;;;;;;;36.27;30.19;95601.00;5047377;28;20246;-69
2021/07/29 10:33:18;;;;;;;1999.90;999.90;;;;;;;36.27;29.82;95598.28;5046402;28;20196;-69
2021/07/29 10:35:45;;;;;;;1999.90;999.90;;;;;;;36.44;28.58;95602.13;5047114;28;20216;-70
2021/07/29 10:38:14;;;;;;;1999.90;999.90;;;;;;;36.36;29.28;95590.16;5047253;27;20673;-69
2021/07/29 10:40:44;;;;;;;1999.90;999.90;;;;;;;36.68;31.98;95594.03;5046991;28;20193;-69
2021/07/29 10:43:40;;;;;;;1999.90;999.90;;;;;;;36.66;30.31;95582.91;5047168;28;20194;-69
2021/07/29 10:46:07;;;;;;;1999.90;999.90;;;;;;;36.69;29.38;95586.66;5047280;28;20201;-69
2021/07/29 10:52:09;;;;;;;1999.90;999.90;;;;;;;36.92;31.19;95583.16;5009348;28;20198;-70
2021/07/29 10:54:39;;;;;;;1999.90;999.90;;;;;;;36.99;30.12;95580.09;5043865;28;20270;-71
2021/07/29 10:57:07;;;;;;;1999.90;999.90;;;;;;;37.07;28.34;95573.09;5046764;28;20223;-71
2021/07/29 10:59:35;;;;;;;1999.90;999.90;;;;;;;37.29;26.17;95573.56;5046879;28;20197;-70
2021/07/29 11:02:06;;;;;;;1999.90;999.90;;;;;;;37.06;27.70;95577.78;5046666;28;20201;-70
2021/07/29 11:04:52;;;;;;;1999.90;999.90;;;;;;;36.87;26.10;95578.38;5047106;28;20181;-70